Time;durP1;ratioP1;P1;durP2;ratioP2;P2;SDS_P1;SDS_P2;PMS_P1;PMS_P2;Temp;Humidity;BMP_temperature;BMP_pressure;BME280_temperature;BME280_humidity;BME280_pressure;Samples;Min_cycle;Max_cycle;Signal;HPM_P1;HPM_P2
2021/06/25 00:13:27;;;;;;;10.07;9.18;;;;;;;14.84;49.59;101327.56;4806202;29;99168;-71
2021/06/25 00:15:54;;;;;;;11.85;10.15;;;;;;;14.84;49.75;101324.88;4822137;29;97743;-71
2021/06/25 00:18:22;;;;;;;12.25;10.05;;;;;;;14.82;49.51;101332.00;4823883;29;97861;-72
2021/06/25 00:20:50;;;;;;;10.93;9.80;;;;;;;14.85;49.62;101330.25;4825230;29;97417;-72
2021/06/25 00:23:18;;;;;;;13.40;9.70;;;;;;;14.85;49.36;101327.56;4823472;29;97201;-72
2021/06/25 00:25:46;;;;;;;14.50;11.02;;;;;;;14.94;49.53;101333.03;4826048;29;97067;-71
2021/06/25 00:28:13;;;;;;;15.95;9.27;;;;;;;14.97;49.10;101322.34;4826832;29;97386;-71
2021/06/25 00:30:43;;;;;;;10.90;9.57;;;;;;;14.99;49.08;101327.75;4809174;29;99226;-71
2021/06/25 00:33:11;;;;;;;12.27;9.43;;;;;;;15.00;49.27;101326.84;4827282;29;97657;-72
2021/06/25 00:35:39;;;;;;;10.23;8.98;;;;;;;14.98;48.94;101317.88;4826099;29;96935;-71
2021/06/25 00:38:07;;;;;;;13.00;9.80;;;;;;;14.97;49.30;101324.16;4825907;29;99001;-72
2021/06/25 00:40:35;;;;;;;13.32;9.38;;;;;;;14.96;48.91;101325.91;4825045;29;97732;-73
2021/06/25 00:43:04;;;;;;;10.27;9.23;;;;;;;14.96;48.99;101319.66;4810406;29;97234;-72
2021/06/25 00:45:32;;;;;;;12.43;11.13;;;;;;;15.29;48.86;101328.09;4822307;29;97918;-73
2021/06/25 00:48:01;;;;;;;10.73;9.35;;;;;;;15.12;48.91;101321.63;4815050;29;99935;-72
2021/06/25 00:50:32;;;;;;;12.80;10.32;;;;;;;15.09;48.79;101316.22;4827321;29;97637;-72
2021/06/25 00:53:01;;;;;;;11.15;9.77;;;;;;;15.07;48.63;101312.63;4826744;29;96967;-72
2021/06/25 00:55:30;;;;;;;13.18;9.55;;;;;;;15.06;48.54;101311.72;4810440;29;97687;-73
2021/06/25 00:57:58;;;;;;;13.80;9.68;;;;;;;15.04;48.69;101317.97;4826150;29;100728;-73
2021/06/25 01:00:26;;;;;;;14.05;10.25;;;;;;;15.03;48.92;101314.38;4826495;29;100350;-72
2021/06/25 01:02:54;;;;;;;13.67;11.67;;;;;;;15.36;48.54;101311.19;4824830;29;97197;-72
2021/06/25 01:05:23;;;;;;;11.65;9.43;;;;;;;15.19;48.79;101307.41;4826103;29;97920;-72
2021/06/25 01:07:51;;;;;;;11.15;9.57;;;;;;;15.15;48.83;101302.91;4824386;29;100009;-73
2021/06/25 01:10:19;;;;;;;9.90;8.90;;;;;;;15.13;48.84;101299.31;4826982;29;100348;-71
2021/06/25 01:12:46;;;;;;;12.15;9.63;;;;;;;15.12;49.03;101297.47;4827513;29;98127;-72
2021/06/25 01:15:15;;;;;;;10.90;8.85;;;;;;;15.12;48.84;101292.13;4825355;29;98789;-72
2021/06/25 01:17:44;;;;;;;12.43;9.82;;;;;;;15.13;48.69;101281.44;4824550;29;99636;-72
2021/06/25 01:20:14;;;;;;;12.05;9.30;;;;;;;15.15;48.80;101278.78;4826613;29;97408;-72
2021/06/25 01:22:43;;;;;;;14.57;11.40;;;;;;;15.50;48.35;101274.66;4825353;29;98125;-71
2021/06/25 01:25:17;;;;;;;11.97;10.80;;;;;;;15.67;48.00;101266.75;4808410;29;96931;-73
2021/06/25 01:27:46;;;;;;;12.48;11.23;;;;;;;15.78;47.71;101273.09;4823933;29;97707;-72
2021/06/25 01:30:16;;;;;;;13.05;11.63;;;;;;;15.85;47.81;101270.47;4825577;29;98024;-72
2021/06/25 01:32:46;;;;;;;12.52;10.48;;;;;;;15.56;48.46;101274.72;4824932;29;97785;-72
2021/06/25 01:35:15;;;;;;;13.55;11.75;;;;;;;15.84;47.78;101263.34;4824428;29;97047;-73
2021/06/25 01:37:45;;;;;;;11.57;9.23;;;;;;;15.57;48.46;101272.94;4825201;29;99346;-72
2021/06/25 01:40:14;;;;;;;13.65;11.57;;;;;;;15.80;48.04;101264.19;4825275;29;98194;-72
2021/06/25 01:42:43;;;;;;;11.27;9.90;;;;;;;15.48;48.44;101265.72;4824292;29;96882;-72
2021/06/25 01:45:13;;;;;;;11.43;10.23;;;;;;;15.29;48.59;101266.44;4824703;29;97038;-72
2021/06/25 01:47:42;;;;;;;13.05;11.15;;;;;;;15.60;48.28;101263.13;4824269;29;98949;-73
2021/06/25 01:50:12;;;;;;;14.00;11.45;;;;;;;15.70;48.25;101254.25;4824039;29;99254;-72
2021/06/25 01:52:44;;;;;;;13.35;11.95;;;;;;;15.78;47.95;101257.91;4823766;29;96746;-72
2021/06/25 01:55:12;;;;;;;14.25;12.10;;;;;;;15.80;48.11;101244.50;4824875;29;97807;-73
2021/06/25 01:57:41;;;;;;;15.07;12.17;;;;;;;15.83;47.68;101248.09;4822931;29;100526;-73
2021/06/25 02:00:10;;;;;;;10.90;9.82;;;;;;;15.44;48.76;101242.44;4825839;29;97691;-72
2021/06/25 02:02:38;;;;;;;13.65;11.77;;;;;;;15.73;48.32;101251.63;4818915;29;96991;-73
2021/06/25 02:05:08;;;;;;;13.80;12.40;;;;;;;15.77;47.99;101247.16;4822610;29;97756;-72
2021/06/25 02:07:36;;;;;;;11.50;10.18;;;;;;;15.38;48.91;101247.75;4824538;29;97268;-73
2021/06/25 02:10:07;;;;;;;13.45;12.05;;;;;;;15.67;48.25;101243.50;4824285;29;97666;-72
2021/06/25 02:12:36;;;;;;;14.82;12.32;;;;;;;15.75;48.34;101239.13;4823927;29;96876;-73
2021/06/25 02:15:06;;;;;;;13.70;12.13;;;;;;;15.78;48.04;101236.44;4824921;29;98005;-73
2021/06/25 02:17:34;;;;;;;17.00;11.93;;;;;;;15.78;47.71;101243.59;4807889;29;99506;-72
2021/06/25 02:20:02;;;;;;;12.60;10.43;;;;;;;15.38;48.93;101237.00;4824187;29;98746;-72
2021/06/25 02:22:29;;;;;;;14.10;12.53;;;;;;;15.65;47.91;101233.69;4822682;29;98306;-73
2021/06/25 02:24:57;;;;;;;11.48;10.35;;;;;;;15.30;48.61;101236.06;4824820;29;97268;-73
2021/06/25 02:27:26;;;;;;;12.40;10.13;;;;;;;15.15;49.38;101230.53;4824154;29;97724;-72
2021/06/25 02:29:54;;;;;;;11.05;9.95;;;;;;;15.05;49.52;101228.63;4838929;28;97923;-73
2021/06/25 02:32:22;;;;;;;11.60;10.13;;;;;;;14.97;49.51;101231.22;4825009;29;97348;-72
2021/06/25 02:34:49;;;;;;;14.07;12.33;;;;;;;15.29;48.94;101230.63;4824929;29;97907;-73
2021/06/25 02:37:17;;;;;;;11.25;10.13;;;;;;;15.02;49.51;101233.97;4822972;29;99340;-73
2021/06/25 02:39:45;;;;;;;14.27;12.60;;;;;;;15.33;49.01;101229.81;4824042;29;99595;-73
2021/06/25 02:42:13;;;;;;;14.35;12.85;;;;;;;15.42;48.60;101233.47;4824720;29;96867;-72
2021/06/25 02:44:42;;;;;;;14.23;12.82;;;;;;;15.48;48.01;101225.50;4825702;29;97421;-72
2021/06/25 02:47:10;;;;;;;14.35;9.75;;;;;;;15.13;48.95;101226.91;4824298;29;98315;-72
2021/06/25 02:49:37;;;;;;;11.90;10.63;;;;;;;15.00;49.11;101222.31;4827149;29;98639;-72
2021/06/25 02:52:05;;;;;;;12.68;11.18;;;;;;;14.85;49.36;101209.66;4827710;29;97319;-73
2021/06/25 02:54:35;;;;;;;13.27;10.73;;;;;;;14.84;49.34;101215.91;4829119;29;97681;-73
2021/06/25 02:57:04;;;;;;;10.63;9.60;;;;;;;14.79;49.51;101214.94;4827208;29;100083;-73
2021/06/25 02:59:31;;;;;;;11.02;9.98;;;;;;;14.74;49.37;101227.41;4842560;28;99152;-73
2021/06/25 03:02:00;;;;;;;16.33;14.38;;;;;;;14.70;49.83;101228.25;4826136;29;97258;-73
2021/06/25 03:04:28;;;;;;;18.67;15.13;;;;;;;14.66;49.80;101222.84;4827753;29;97326;-72
2021/06/25 03:06:56;;;;;;;15.45;13.85;;;;;;;14.63;49.82;101228.16;4826456;29;100623;-73
2021/06/25 03:09:24;;;;;;;15.38;12.73;;;;;;;14.56;49.84;101220.94;4811481;29;100354;-73
2021/06/25 03:11:52;;;;;;;14.75;11.60;;;;;;;14.52;49.89;101216.38;4826316;29;97728;-73
2021/06/25 03:14:19;;;;;;;14.48;12.77;;;;;;;14.48;49.96;101215.44;4827424;29;97930;-73
2021/06/25 03:16:47;;;;;;;13.15;11.85;;;;;;;14.44;49.99;101204.69;4826349;29;99274;-73
2021/06/25 03:19:16;;;;;;;18.55;12.20;;;;;;;14.43;50.00;101194.84;4828375;29;97593;-73
2021/06/25 03:21:44;;;;;;;15.52;11.98;;;;;;;14.40;50.11;101203.75;4826067;29;99034;-74
2021/06/25 03:24:12;;;;;;;12.65;11.32;;;;;;;14.39;50.13;101211.78;4811561;29;97302;-74
2021/06/25 03:26:40;;;;;;;14.30;12.57;;;;;;;14.37;50.05;101213.53;4827180;29;98743;-73
2021/06/25 03:29:08;;;;;;;12.60;11.30;;;;;;;14.33;49.95;101217.97;4826065;29;97679;-73
2021/06/25 03:31:36;;;;;;;14.35;11.18;;;;;;;14.32;50.05;101215.22;4826429;29;97079;-73
2021/06/25 03:34:04;;;;;;;12.20;10.48;;;;;;;14.29;50.19;101209.84;4826674;29;97618;-72
2021/06/25 03:36:33;;;;;;;12.82;11.10;;;;;;;14.28;50.22;101216.09;4825240;29;97716;-73
2021/06/25 03:39:00;;;;;;;14.13;11.77;;;;;;;14.27;49.98;101227.66;4827135;29;97949;-73
2021/06/25 03:41:28;;;;;;;15.68;11.43;;;;;;;14.26;50.17;101233.91;4828958;29;97847;-74
2021/06/25 03:43:56;;;;;;;14.35;11.30;;;;;;;14.28;49.91;101227.69;4826106;29;97932;-74
2021/06/25 03:46:24;;;;;;;13.02;11.10;;;;;;;14.23;50.11;101226.72;4825321;29;97661;-73
2021/06/25 03:48:52;;;;;;;14.32;11.43;;;;;;;14.23;49.99;101233.84;4826647;29;97739;-73
2021/06/25 03:51:19;;;;;;;13.45;11.98;;;;;;;14.21;50.22;101235.63;4824983;29;97451;-73
2021/06/25 03:53:49;;;;;;;15.80;11.48;;;;;;;14.22;50.05;101246.38;4828422;29;96864;-73
2021/06/25 03:56:17;;;;;;;17.48;12.30;;;;;;;14.24;49.91;101243.69;4825292;29;97434;-72
2021/06/25 03:58:46;;;;;;;13.35;11.95;;;;;;;14.23;49.95;101239.22;4809919;29;100404;-75
2021/06/25 04:01:16;;;;;;;17.58;12.18;;;;;;;14.23;50.01;101239.22;4822985;29;98165;-75
2021/06/25 04:03:44;;;;;;;14.38;12.07;;;;;;;14.24;49.83;101244.59;4808169;29;97107;-76
2021/06/25 04:06:12;;;;;;;15.07;11.52;;;;;;;14.24;49.93;101244.59;4824591;29;98383;-74
2021/06/25 04:08:40;;;;;;;15.82;12.55;;;;;;;14.21;49.99;101246.34;4825426;29;97541;-75
2021/06/25 04:11:09;;;;;;;16.35;12.27;;;;;;;14.15;49.95;101250.72;4828596;29;97194;-75
2021/06/25 04:13:37;;;;;;;13.73;12.27;;;;;;;14.13;49.97;101247.13;4824373;29;97141;-76
2021/06/25 04:16:05;;;;;;;13.93;12.35;;;;;;;14.11;49.83;101254.25;4810001;29;101164;-75
2021/06/25 04:18:33;;;;;;;14.50;12.20;;;;;;;14.11;50.00;101259.59;4829125;29;97790;-76
2021/06/25 04:21:01;;;;;;;23.45;18.10;;;;;;;14.12;49.87;101249.78;4826915;29;98405;-77
2021/06/25 04:23:28;;;;;;;18.95;14.38;;;;;;;14.09;49.92;101250.66;4826372;29;96891;-76
2021/06/25 04:25:56;;;;;;;15.32;13.07;;;;;;;14.08;50.08;101256.84;4828186;29;97925;-74
2021/06/25 04:28:25;;;;;;;16.00;12.32;;;;;;;14.07;50.02;101256.84;4827432;29;98277;-74
2021/06/25 04:30:53;;;;;;;15.40;13.32;;;;;;;14.06;49.86;101263.09;4823309;29;96902;-75
2021/06/25 04:33:21;;;;;;;13.57;12.18;;;;;;;14.03;50.10;101263.94;4811288;29;96895;-75
2021/06/25 04:35:50;;;;;;;14.43;12.48;;;;;;;14.04;50.08;101267.53;4811546;29;99557;-76
2021/06/25 04:38:18;;;;;;;14.10;12.07;;;;;;;14.05;49.99;101267.53;4828084;29;98852;-74
2021/06/25 04:40:46;;;;;;;14.25;12.18;;;;;;;14.06;49.97;101265.78;4826689;29;98017;-74
2021/06/25 04:43:15;;;;;;;198.68;113.28;;;;;;;14.06;50.07;101269.31;4828193;29;97823;-73
2021/06/25 04:45:45;;;;;;;55.83;37.63;;;;;;;14.45;49.28;101281.47;4825350;29;98113;-72
2021/06/25 04:48:15;;;;;;;40.75;28.83;;;;;;;14.23;49.48;101280.28;4793603;29;100407;-75
2021/06/25 04:50:44;;;;;;;18.65;15.73;;;;;;;14.17;49.46;101274.81;4825750;29;97084;-76
2021/06/25 04:53:12;;;;;;;16.67;13.00;;;;;;;14.16;49.58;101281.06;4825173;29;97477;-75
2021/06/25 04:55:45;;;;;;;36.00;24.10;;;;;;;14.15;49.90;101285.50;4822415;29;99716;-75
2021/06/25 04:58:14;;;;;;;90.32;51.08;;;;;;;14.12;49.59;101287.25;4825090;28;97802;-72
2021/06/25 05:00:42;;;;;;;55.53;36.13;;;;;;;14.12;49.57;101280.13;4824351;29;97118;-71
2021/06/25 05:03:12;;;;;;;23.17;17.55;;;;;;;14.11;49.71;101281.00;4822654;29;97948;-75
2021/06/25 05:05:42;;;;;;;17.83;13.95;;;;;;;14.09;49.83;101289.88;4812798;29;100463;-74
2021/06/25 05:08:11;;;;;;;18.42;13.65;;;;;;;14.09;49.70;101284.53;4822314;28;97521;-73
2021/06/25 05:10:39;;;;;;;17.02;13.68;;;;;;;14.07;49.75;101281.84;4820187;29;97320;-74
2021/06/25 05:13:07;;;;;;;17.75;13.98;;;;;;;14.08;49.72;101282.72;4820174;29;98187;-75
2021/06/25 05:15:35;;;;;;;14.43;12.63;;;;;;;14.10;49.67;101289.91;4822270;29;100471;-74
2021/06/25 05:18:15;;;;;;;17.08;13.20;;;;;;;14.06;49.81;101296.09;4823852;29;100755;-74
2021/06/25 05:21:03;;;;;;;16.80;12.40;;;;;;;14.07;49.67;101292.53;4823763;29;97704;-77
2021/06/25 05:23:31;;;;;;;17.75;12.27;;;;;;;14.05;49.80;101296.97;4819770;29;98384;-73
2021/06/25 05:25:59;;;;;;;17.55;12.45;;;;;;;13.96;50.02;101295.94;4808510;29;102586;-73
2021/06/25 05:28:27;;;;;;;14.05;11.23;;;;;;;13.92;49.90;101294.06;4808563;29;100722;-74
2021/06/25 05:30:55;;;;;;;12.93;11.55;;;;;;;13.88;50.04;101298.47;4808089;29;97535;-77
2021/06/25 05:33:24;;;;;;;18.95;14.75;;;;;;;13.87;49.91;101307.41;4824805;29;96964;-74
2021/06/25 05:35:52;;;;;;;19.42;15.57;;;;;;;13.85;49.91;101302.88;4824673;29;99342;-76
2021/06/25 05:38:20;;;;;;;26.20;20.73;;;;;;;13.84;49.98;101301.97;4824306;29;100844;-77
2021/06/25 05:40:47;;;;;;;13.88;12.23;;;;;;;13.85;49.72;101309.16;4823170;29;97058;-74
2021/06/25 05:43:15;;;;;;;12.82;11.32;;;;;;;13.85;49.83;101303.78;4825022;29;97336;-74
2021/06/25 05:45:43;;;;;;;12.70;11.35;;;;;;;13.83;49.87;101305.53;4825323;29;97908;-73
2021/06/25 05:48:11;;;;;;;13.85;11.50;;;;;;;13.82;49.88;101301.03;4808176;29;97693;-76
2021/06/25 05:50:40;;;;;;;12.82;11.48;;;;;;;13.83;49.72;101310.88;4826207;29;97885;-74
2021/06/25 05:53:08;;;;;;;14.60;11.05;;;;;;;13.81;49.80;101309.97;4824662;29;97832;-75
2021/06/25 05:55:36;;;;;;;15.15;11.63;;;;;;;13.80;49.76;101305.50;4823914;29;98256;-75
2021/06/25 05:58:04;;;;;;;15.05;11.00;;;;;;;13.81;49.73;101306.38;4825872;29;98824;-75
2021/06/25 06:00:31;;;;;;;12.23;10.43;;;;;;;13.81;49.70;101309.06;4826126;29;96667;-73
2021/06/25 06:03:00;;;;;;;11.50;10.27;;;;;;;13.81;49.49;101311.72;4824696;29;97156;-75
2021/06/25 06:05:28;;;;;;;12.82;10.43;;;;;;;13.76;49.56;101316.97;4823230;29;100696;-76
2021/06/25 06:07:57;;;;;;;14.40;10.60;;;;;;;13.71;49.60;101324.03;4826026;29;98756;-76
2021/06/25 06:10:24;;;;;;;13.20;10.40;;;;;;;13.67;49.83;101318.59;4823575;29;97666;-75
2021/06/25 06:12:53;;;;;;;13.93;11.45;;;;;;;13.73;49.75;101324.06;4823244;29;97029;-74
2021/06/25 06:15:21;;;;;;;12.25;10.88;;;;;;;13.74;49.56;101329.44;4808282;29;99193;-74
2021/06/25 06:17:49;;;;;;;13.48;11.52;;;;;;;13.74;49.75;101321.41;4823612;29;98771;-76
2021/06/25 06:20:19;;;;;;;13.70;11.02;;;;;;;13.72;49.72;101333.84;4825036;29;98007;-77
2021/06/25 06:31:20;;;;;;;12.63;10.77;;;;;;;13.65;49.82;101337.28;4822722;29;97306;-75
2021/06/25 06:33:53;;;;;;;13.80;11.50;;;;;;;13.65;49.83;101337.28;4822548;29;97003;-74
2021/06/25 06:36:26;;;;;;;13.93;10.73;;;;;;;13.61;49.97;101339.88;4819696;29;99590;-76
2021/06/25 06:38:57;;;;;;;12.18;10.88;;;;;;;13.59;50.12;101337.19;4823215;29;101109;-74
2021/06/25 06:41:26;;;;;;;14.52;11.73;;;;;;;13.52;50.19;101345.97;4823565;29;97798;-73
2021/06/25 06:43:54;;;;;;;14.77;10.85;;;;;;;13.49;50.28;101340.59;4823228;29;97042;-74
2021/06/25 06:46:22;;;;;;;12.57;10.82;;;;;;;13.47;50.52;101344.09;4822411;29;99311;-75
2021/06/25 06:48:50;;;;;;;12.57;11.15;;;;;;;13.49;50.43;101337.00;4823766;29;98999;-74
2021/06/25 06:51:19;;;;;;;12.52;10.45;;;;;;;13.48;50.53;101338.75;4825375;29;96897;-75
2021/06/25 06:53:47;;;;;;;17.75;12.10;;;;;;;13.51;50.52;101344.19;4825498;29;96885;-74
2021/06/25 06:56:16;;;;;;;14.00;11.65;;;;;;;13.54;50.52;101332.63;4807547;29;101135;-74
2021/06/25 06:58:46;;;;;;;14.77;11.35;;;;;;;13.55;50.37;101334.44;4823537;29;98791;-74
2021/06/25 07:01:14;;;;;;;20.08;16.35;;;;;;;13.59;50.45;101322.91;4825232;29;97858;-75
2021/06/25 07:04:02;;;;;;;19.30;16.02;;;;;;;13.60;50.43;101325.63;4823328;29;97717;-75
2021/06/25 07:06:30;;;;;;;14.95;13.15;;;;;;;13.62;50.37;101325.66;4805614;29;98132;-74
2021/06/25 07:08:58;;;;;;;17.85;14.52;;;;;;;13.67;50.43;101334.63;4807309;29;100360;-73
2021/06/25 07:11:25;;;;;;;28.17;20.48;;;;;;;13.70;50.31;101322.22;4822926;29;97630;-73
2021/06/25 07:13:54;;;;;;;15.15;13.55;;;;;;;13.74;50.37;101331.19;4825009;29;97935;-72
2021/06/25 07:16:22;;;;;;;14.68;12.43;;;;;;;13.79;50.31;101326.84;4834611;28;99198;-72
2021/06/25 07:18:50;;;;;;;14.98;11.57;;;;;;;13.82;50.21;101329.59;4825487;29;97572;-75
2021/06/25 07:21:18;;;;;;;23.58;15.93;;;;;;;13.84;50.09;101326.06;4823515;29;97248;-74
2021/06/25 07:23:47;;;;;;;19.08;15.23;;;;;;;13.84;50.19;101327.84;4825714;29;97029;-73
2021/06/25 07:26:17;;;;;;;16.00;12.98;;;;;;;13.86;50.09;101326.97;4808135;29;100591;-73
2021/06/25 07:28:45;;;;;;;15.25;11.93;;;;;;;13.92;49.85;101335.13;4823919;29;100064;-74
2021/06/25 07:31:14;;;;;;;15.10;11.43;;;;;;;13.94;49.94;101335.13;4824920;29;97303;-75
2021/06/25 07:33:42;;;;;;;14.00;12.43;;;;;;;13.90;49.98;101334.19;4826619;29;97397;-75
2021/06/25 07:36:09;;;;;;;39.42;28.50;;;;;;;13.96;50.05;101331.63;4811949;29;99770;-72
2021/06/25 07:38:37;;;;;;;27.23;20.58;;;;;;;14.01;49.96;101339.69;4827467;29;99524;-74
2021/06/25 07:41:05;;;;;;;17.65;14.07;;;;;;;14.03;49.86;101336.19;4826607;29;97489;-74
2021/06/25 07:43:33;;;;;;;15.00;12.52;;;;;;;14.09;49.86;101330.94;4827558;29;97554;-73
2021/06/25 07:46:01;;;;;;;14.20;11.50;;;;;;;14.13;49.67;101330.09;4809935;29;99395;-74
2021/06/25 07:48:30;;;;;;;14.00;10.88;;;;;;;14.23;49.30;101327.53;4809842;29;100547;-76
2021/06/25 07:50:57;;;;;;;15.25;11.73;;;;;;;14.29;49.21;101338.34;4826587;29;97737;-73
2021/06/25 07:53:25;;;;;;;11.88;10.63;;;;;;;14.28;49.33;101336.56;4826811;29;98216;-75
2021/06/25 07:55:53;;;;;;;14.65;11.98;;;;;;;14.26;49.10;101343.69;4826296;29;98577;-74
2021/06/25 07:58:21;;;;;;;12.73;10.23;;;;;;;14.29;49.28;101339.25;4824590;29;99809;-74
2021/06/25 08:00:49;;;;;;;12.80;11.05;;;;;;;14.37;49.12;101345.63;4826484;29;97548;-74
2021/06/25 08:03:17;;;;;;;11.65;10.45;;;;;;;14.40;49.06;101353.72;4826885;29;97446;-75
2021/06/25 08:05:46;;;;;;;10.90;9.80;;;;;;;14.46;48.91;101336.84;4824737;29;99923;-76
2021/06/25 08:08:14;;;;;;;13.05;10.57;;;;;;;14.48;48.79;101354.69;4824816;29;100548;-75
2021/06/25 08:10:42;;;;;;;13.95;11.65;;;;;;;14.50;48.72;101349.41;4825242;29;98152;-75
2021/06/25 08:13:10;;;;;;;12.88;11.02;;;;;;;14.50;48.82;101349.41;4826770;29;97641;-73
2021/06/25 08:15:38;;;;;;;18.75;11.32;;;;;;;14.51;48.78;101343.16;4825375;29;97841;-73
2021/06/25 08:18:10;;;;;;;13.27;10.50;;;;;;;14.51;48.51;101349.41;4810744;29;99299;-75
2021/06/25 08:20:38;;;;;;;13.10;10.85;;;;;;;14.50;48.59;101338.69;4841226;28;97646;-74
2021/06/25 08:23:07;;;;;;;13.38;10.52;;;;;;;14.51;48.61;101340.47;4826134;29;98123;-75
2021/06/25 08:25:35;;;;;;;11.52;10.32;;;;;;;14.55;48.49;101336.97;4825204;29;99427;-75
2021/06/25 08:28:03;;;;;;;12.23;10.90;;;;;;;14.53;48.37;101334.25;4810380;29;100558;-74
2021/06/25 08:30:31;;;;;;;15.65;10.73;;;;;;;14.58;48.42;101345.97;4827295;29;98397;-76
2021/06/25 08:32:59;;;;;;;11.77;10.57;;;;;;;14.63;48.50;101346.91;4824239;29;97246;-76
2021/06/25 08:35:27;;;;;;;13.38;11.25;;;;;;;14.64;48.14;101345.16;4826171;29;98563;-73
2021/06/25 08:37:55;;;;;;;13.05;11.05;;;;;;;14.68;48.16;101344.31;4825563;29;99715;-73
2021/06/25 08:40:25;;;;;;;12.40;10.88;;;;;;;14.71;48.20;101344.34;4825792;29;97612;-75
2021/06/25 08:42:52;;;;;;;11.07;10.00;;;;;;;14.71;47.91;101347.03;4825386;29;97329;-73
2021/06/25 08:45:20;;;;;;;12.65;10.13;;;;;;;14.74;48.18;101342.59;4825104;29;99365;-75
2021/06/25 08:47:50;;;;;;;16.13;10.43;;;;;;;14.80;48.03;101341.78;4825165;29;97641;-73
2021/06/25 08:50:20;;;;;;;12.75;10.88;;;;;;;14.80;47.76;101341.78;4825855;29;96943;-76
2021/06/25 08:52:49;;;;;;;12.50;10.57;;;;;;;14.79;47.72;101337.31;4810396;29;97017;-75
2021/06/25 08:55:17;;;;;;;12.93;11.30;;;;;;;14.77;47.85;101341.75;4826314;29;98400;-74
2021/06/25 08:57:46;;;;;;;13.30;11.38;;;;;;;14.86;47.67;101341.88;4826187;29;100665;-74
2021/06/25 09:00:15;;;;;;;13.55;9.98;;;;;;;14.91;47.75;101342.81;4825646;29;98416;-73
2021/06/25 09:02:45;;;;;;;11.88;10.68;;;;;;;14.98;47.64;101334.88;4810673;29;97532;-74
2021/06/25 09:05:26;;;;;;;13.32;9.65;;;;;;;15.09;47.18;101335.00;4825702;29;100725;-75
2021/06/25 09:07:57;;;;;;;10.60;9.15;;;;;;;15.17;46.90;101336.00;4825068;29;99305;-74
2021/06/25 09:10:36;;;;;;;14.47;11.27;;;;;;;15.37;46.07;101334.47;4824834;29;97486;-76
2021/06/25 09:13:09;;;;;;;10.73;9.48;;;;;;;15.33;46.15;101332.63;4825406;29;97310;-74
2021/06/25 09:15:39;;;;;;;13.05;9.52;;;;;;;15.36;46.40;101331.72;4825231;29;98075;-75
2021/06/25 09:18:09;;;;;;;14.05;10.23;;;;;;;15.35;46.16;101335.31;4823498;29;100399;-75
2021/06/25 09:20:38;;;;;;;11.18;9.52;;;;;;;15.32;46.33;101336.16;4824868;29;96984;-76
2021/06/25 09:23:08;;;;;;;11.55;8.80;;;;;;;15.31;46.18;101328.13;4825404;29;97185;-75
2021/06/25 09:25:54;;;;;;;13.20;10.18;;;;;;;15.27;45.38;101337.88;4838680;28;99278;-76
2021/06/25 09:28:29;;;;;;;9.32;8.43;;;;;;;15.24;46.36;101334.25;4823765;29;99604;-74
2021/06/25 09:30:57;;;;;;;11.27;9.90;;;;;;;15.21;46.25;101332.44;4825957;29;96823;-76
2021/06/25 09:33:25;;;;;;;12.57;11.27;;;;;;;15.52;44.92;101329.22;4821801;29;98192;-76
2021/06/25 09:35:54;;;;;;;12.45;9.75;;;;;;;15.41;45.34;101319.28;4797329;29;100842;-76
2021/06/25 09:38:33;;;;;;;11.15;8.50;;;;;;;15.35;45.27;101330.84;4823937;29;99691;-76
2021/06/25 09:41:02;;;;;;;10.93;9.18;;;;;;;15.35;45.81;101328.19;4825289;29;98033;-76
2021/06/25 09:43:34;;;;;;;11.55;9.13;;;;;;;15.35;45.92;101327.28;4823572;29;97849;-77
2021/06/25 09:46:04;;;;;;;10.93;8.52;;;;;;;15.39;46.02;101327.34;4823973;29;100507;-74
2021/06/25 09:48:53;;;;;;;10.43;9.23;;;;;;;15.38;45.62;101319.25;4825532;29;97628;-74
2021/06/25 09:51:21;;;;;;;10.45;8.88;;;;;;;15.45;45.82;101322.00;4808312;29;97768;-74
2021/06/25 09:54:10;;;;;;;11.15;8.82;;;;;;;15.54;44.91;101327.44;4823120;29;97928;-74
2021/06/25 09:56:44;;;;;;;11.80;9.80;;;;;;;15.62;45.34;101324.84;4823855;29;99788;-75
2021/06/25 10:02:23;;;;;;;8.88;8.02;;;;;;;15.73;44.93;101321.38;4814616;29;97261;-76
2021/06/25 10:04:52;;;;;;;9.68;8.68;;;;;;;15.83;44.73;101317.00;4809969;29;96947;-76
2021/06/25 10:07:21;;;;;;;11.80;8.85;;;;;;;15.80;44.81;101317.88;4839448;28;100558;-74
2021/06/25 10:09:51;;;;;;;11.23;10.02;;;;;;;15.64;44.86;101317.72;4824769;29;99690;-76
2021/06/25 10:12:20;;;;;;;13.75;9.88;;;;;;;15.59;44.86;101319.47;4824956;29;96828;-76
2021/06/25 10:14:55;;;;;;;11.43;9.23;;;;;;;15.57;44.88;101322.13;4825020;29;96840;-75
2021/06/25 10:17:26;;;;;;;15.02;10.13;;;;;;;15.59;45.11;101319.47;4823787;29;97768;-74
2021/06/25 10:19:59;;;;;;;11.35;9.57;;;;;;;15.61;45.01;101318.56;4824342;29;98286;-74
2021/06/25 10:22:28;;;;;;;13.70;10.88;;;;;;;15.68;44.77;101319.53;4826183;29;97302;-73
2021/06/25 10:24:57;;;;;;;11.50;10.25;;;;;;;15.72;45.09;101324.94;4826615;29;98358;-73
2021/06/25 10:27:26;;;;;;;11.73;9.60;;;;;;;15.71;45.06;101317.78;4824244;29;98624;-73
2021/06/25 10:29:57;;;;;;;11.45;9.98;;;;;;;15.74;44.60;101314.25;4808917;29;100290;-76
2021/06/25 10:32:25;;;;;;;12.80;9.52;;;;;;;15.74;44.97;101317.81;4823903;29;98762;-73
2021/06/25 10:34:57;;;;;;;12.07;10.70;;;;;;;15.77;45.14;101314.25;4824146;29;98113;-73
2021/06/25 10:37:28;;;;;;;10.43;8.88;;;;;;;15.79;44.79;101318.75;4823432;29;98142;-72
2021/06/25 10:39:58;;;;;;;12.00;8.93;;;;;;;15.82;44.88;101323.25;4841286;28;100232;-74
2021/06/25 10:42:40;;;;;;;10.77;9.57;;;;;;;15.89;44.47;101320.63;4824370;29;97485;-75
2021/06/25 10:45:10;;;;;;;13.35;9.75;;;;;;;15.95;44.70;101320.69;4808131;29;97284;-74
2021/06/25 10:47:52;;;;;;;12.75;10.07;;;;;;;16.00;43.94;101316.25;4823258;29;98868;-74
2021/06/25 10:50:24;;;;;;;11.50;9.18;;;;;;;16.10;44.10;101315.44;4823811;29;99063;-76
2021/06/25 10:53:12;;;;;;;11.23;9.85;;;;;;;16.16;43.99;101311.88;4824225;29;96884;-73
2021/06/25 10:55:47;;;;;;;12.45;10.85;;;;;;;16.23;43.92;101313.75;4823130;29;97302;-73
2021/06/25 10:58:22;;;;;;;12.82;9.27;;;;;;;16.32;43.88;101311.13;4823705;29;98064;-76
2021/06/25 11:00:55;;;;;;;11.65;10.45;;;;;;;16.39;44.06;101314.72;4825941;29;98204;-73
2021/06/25 11:03:45;;;;;;;12.25;10.30;;;;;;;16.41;43.46;101315.63;4793421;29;97293;-75
2021/06/25 11:06:52;;;;;;;14.48;10.48;;;;;;;16.37;42.98;101313.81;4824607;29;97557;-74
2021/06/25 11:09:21;;;;;;;11.88;8.85;;;;;;;16.37;43.72;101321.88;4841750;28;99040;-75
2021/06/25 11:11:50;;;;;;;9.85;8.85;;;;;;;16.37;43.67;101313.81;4812003;29;99186;-74
2021/06/25 11:14:26;;;;;;;12.30;9.38;;;;;;;16.31;43.53;101320.06;4827335;29;98015;-73
2021/06/25 11:16:55;;;;;;;9.85;8.30;;;;;;;16.29;43.85;101320.94;4815721;29;96979;-75
2021/06/25 11:19:37;;;;;;;13.30;9.43;;;;;;;16.22;42.50;101319.09;4828619;28;97654;-73
2021/06/25 11:22:37;;;;;;;11.38;8.45;;;;;;;16.23;43.72;101326.28;4831919;28;99689;-76
2021/06/25 11:25:06;;;;;;;10.88;8.73;;;;;;;16.27;44.03;101317.34;4827372;29;98031;-75
2021/06/25 11:28:07;;;;;;;9.48;8.02;;;;;;;16.28;43.63;101305.72;4826983;29;97114;-75
2021/06/25 11:31:11;;;;;;;11.07;8.77;;;;;;;16.31;43.25;101311.09;4810433;29;99421;-73
2021/06/25 11:33:51;;;;;;;10.87;9.47;;;;;;;16.34;43.88;101308.44;4771253;29;99063;-75
2021/06/25 11:36:41;;;;;;;11.68;9.60;;;;;;;16.35;43.82;101312.91;4760837;29;97152;-74
2021/06/25 11:39:21;;;;;;;13.35;11.95;;;;;;;16.52;42.71;101317.50;4805588;28;97642;-74
2021/06/25 11:41:52;;;;;;;15.65;11.23;;;;;;;16.54;42.35;101310.31;4824070;29;97835;-74
2021/06/25 11:44:22;;;;;;;11.73;10.05;;;;;;;16.59;42.08;101305.00;4822101;29;97863;-74
2021/06/25 11:46:52;;;;;;;17.73;15.82;;;;;;;16.65;41.79;101307.72;4828180;28;98117;-72